Accueil
METAR-TAF:

METAR-TAF

Aéroports :

Aéroport de Dijon-Bourgogne

Dijon, France

latitude: 47-16N, longitude: 005-05E, altitude: 222 m

Observation

Le bulletin a été fait il y a 35 minutes, à 11:00 UTC
Vent 10 kt de nord/nord-est, variant entre nord/nord-ouest et est/nord-est
Température 11°C
Humidité 47%
Pression 1020 hPa
Visibilité 10 km ou plus
Ciel couvert à une hauteur de 4600 ft

METAR: LFSD 181100Z AUTO 03010KT 340V060 9999 OVC046 11/00 Q1020

Heure: 13:35 (11:35 UTC)


TAF: absent

Observations et prévisions météorologiques de plus de 4000 aéroports (messages METAR et TAF).

Les stations disponibles sont représentées par des disques jaunes et rouges sur la carte.

Passer la souris dessus pour voir le nom de la station.

Cliquer dessus pour voir les observations et prévisions météorologiques.

Pour changer de carte: cliquez sur les boutons verts avec une croix noire pour zoomer, sur le bouton vert avec un tiret pour effectuer un zoom arrière, ou sur les flèches vertes pour les cartes adjacentes.


METAR-TAF: